Airfield :
LOGIN :

Register | Disclaimer

   EN    FR    IT 

 










Legend :    VFR   Marginal VFR   IFR   Intensive IFR   Very Intensive IFR
Visi :
Ceiling :
>= 8 km
>= 3000ft
5 to 8 km
1000 to 3000 ft
1500m to 5 km
500 to 1000 ft
800 to 1500m
200 to 500 ft
< 800m
< 200 ft
Symbols :   Thunderstorms  Fog  Heavy snow  Heavy precipitations  Wind > 20 kt
SIGMETs :     Misc.  Thunderstorms  Icing  Turbulence  Mountain Waves  Volcanic Ashes






- Airport Elevation : 2001 ft
- IATA code : MAD


LEMD - Madrid

CURRENT METAR :
  • 291400Z 22016G28KT 200V260 9999 SCT020 BKN030 14/08 Q1012 NOSIG

EXPIRED METARs :
  • 291330Z 22017KT 190V250 9999 SCT020 BKN030 14/07 Q1013 NOSIG
  • 291300Z 21017KT 190V250 9999 BKN020 BKN030 14/07 Q1013 NOSIG
  • 291230Z VRB14G26KT 9999 BKN020 BKN030 13/07 Q1014 NOSIG
  • 291200Z 23017G32KT 200V260 9999 BKN020 BKN027 13/07 Q1014 NOSIG
  • 291130Z 23017G29KT 200V260 9999 BKN014 BKN020 13/07 Q1014 NOSIG

TAF TAF LEMD
Valid from the 29 at 12:00 until the 01 at 18:00 UTC


291100Z 2912/0118 24016KT 9999 SCT025 BKN045 TX16/2915Z TN05/0106Z
PROB40
TEMPO 2912/2920 24015G30KT
PROB30
TEMPO 2912/2918 23020G35KT
PROB30
TEMPO 2912/2917 4500 DZRA BKN014
TEMPO 2923/0109 24010KT
TEMPO 0112/0118 24017G32KT



MET'MAP, your aeronautical weather chart ! - Copyright ORBIFLY December 2007 - Disclaimer

ORBIFLY MET'MAP TEAM :

Programming & Development : Alexandra Zaïnal
Concept & original design : Baudouin d'Aumeries
Assistance for programming : Marc-Olivier Méhu
Technical & hardware support : Manuel Goepfert

Contact : metmap@orbifly.com




SOURCES & CREDITS :

   NOAA